• Join FlightAware (Why Join?)
  • Login
  • US Flag 
10:27AM EDT


 

Airport Tracker/Info


-or-


 

Live Flight TrackerFlight Track Log ✈ GJS3710 ✈ 17-May-2013 ✈ KMSY - KORD

Flight Track Log - Related Links

Times and Time Zones

All times are in EDT time to prevent confusion due to time zone crossing. See the GJS3710 flight status page for this flight to view local times or setup timezone preferences in your user account.

Time Position Orientation Groundspeed Altitude Reporting Facility
EDT Latitude Longitude Course Direction KTS MPH feet Rate Location/Type
03:27PM 29.9739 -90.2539 North 166 191 700  Level Houston Center
03:28PM 29.9353 -90.2825 213° Southwest 208 239 2,600 2,100 Climbing Houston Center
03:29PM 29.9181 -90.3511 254° West 222 255 5,200 2,280 Climbing Houston Center
03:30PM 30.3762 -90.4547 337° Northwest  Level FlightAware Approximate
03:30PM 29.9172 -90.4256 269° West 241 277 7,400  Level Houston Center
03:31PM 30.4794 -90.4500 North  Level FlightAware Approximate
03:31PM 29.9933 -90.4408 350° North 266 306 9,900  Level Houston Center
03:32PM 30.5874 -90.4440 North  Level FlightAware Approximate
03:32PM 30.0789 -90.4517 354° North 293 337 11,000  Level Houston Center
03:33PM 30.1994 -90.4686 353° North 343 395 12,400 1,440 Climbing Houston Center
03:34PM 30.3061 -90.4850 352° North 373 429 14,000 1,800 Climbing Houston Center
03:35PM 30.4142 -90.5000 353° North 385 443 16,200 1,920 Climbing Houston Center
03:36PM 30.5189 -90.5139 353° North 378 435 18,100 1,380 Climbing Houston Center
03:37PM 30.6308 -90.5114 North 398 458 19,100 960 Climbing Houston Center
03:38PM 30.7492 -90.5014 North 418 481 20,100 960 Climbing Houston Center
03:39PM 30.8714 -90.4925 North 433 498 21,100 1,140 Climbing Houston Center
03:40PM 31.0217 -90.4794 North 448 516 22,500 1,200 Climbing Houston Center
03:41PM 31.1472 -90.4689 North 450 518 23,600 960 Climbing Houston Center
03:42PM 31.2731 -90.4597 North 452 520 24,600 960 Climbing Houston Center
03:43PM 31.4028 -90.4483 North 463 533 25,600 660 Climbing Houston Center
03:44PM 31.5308 -90.4389 North 462 532 26,000 360 Climbing Houston Center
03:45PM 31.6619 -90.4283 North 469 540 26,400 720 Climbing Houston Center
03:46PM 31.8197 -90.4147 North 472 543 27,600 1,020 Climbing Houston Center
03:47PM 31.9100 -90.4111 North 458 527 28,300 780 Climbing Memphis Center
03:48PM 32.0331 -90.4186 357° North 451 519 29,000 420 Climbing Memphis Center
03:49PM 32.1583 -90.4308 355° North 451 519 29,200 600 Climbing Memphis Center
03:50PM 32.2836 -90.4383 357° North 446 513 30,200 960 Climbing Memphis Center
03:51PM 32.4089 -90.4483 356° North 441 507 31,200 900 Climbing Memphis Center
03:52PM 32.5342 -90.4558 357° North 441 507 32,100 840 Climbing Memphis Center
03:53PM 32.6594 -90.4683 355° North 446 513 32,900 780 Climbing Memphis Center
03:54PM 32.7825 -90.4808 355° North 446 513 33,700 780 Climbing Memphis Center
03:55PM 32.9097 -90.4883 357° North 441 507 34,500 780 Climbing Memphis Center
03:56PM 33.0331 -90.4986 356° North 441 507 35,300 1,020 Climbing Memphis Center
03:57PM 33.1542 -90.5111 355° North 441 507 36,600 960 Climbing Memphis Center
03:58PM 33.2731 -90.5189 357° North 436 502 37,300 600 Climbing Memphis Center
03:59PM 33.3942 -90.5289 356° North 431 496 37,800 300 Climbing Memphis Center
04:00PM 33.5153 -90.5367 357° North 426 490 38,000 60 Climbing Memphis Center
04:01PM 33.6383 -90.5469 356° North 426 490 38,000  Level Memphis Center
04:02PM 33.7614 -90.5572 356° North 442 509 38,000  Level Memphis Center
04:03PM 33.8992 -90.5725 355° North 442 509 38,000  Level Memphis Center
04:04PM 34.0306 -90.5778 358° North 448 516 38,000  Level Memphis Center
04:05PM 34.1453 -90.5856 357° North 461 531 38,000  Level Memphis Center
04:06PM 34.2728 -90.5983 355° North 461 531 38,000  Level Memphis Center
04:07PM 34.4042 -90.6064 357° North 461 531 38,000  Level Memphis Center
04:08PM 34.5336 -90.5967 North 454 522 38,000  Level Memphis Center
04:09PM 34.6753 -90.6097 356° North 459 528 38,000  Level Memphis Center
04:10PM 34.8047 -90.6175 357° North 465 535 38,000  Level Memphis Center
04:11PM 34.9342 -90.6306 355° North 460 529 38,000  Level Memphis Center
04:12PM 35.0656 -90.6411 356° North 460 529 38,000  Level Memphis Center
04:13PM 35.1928 -90.6517 356° North 460 529 38,000  Level Memphis Center
04:14PM 35.3178 -90.6625 356° North 455 524 38,000  Level Memphis Center
04:15PM 35.4472 -90.6731 356° North 464 534 38,000  Level Memphis Center
04:16PM 35.5597 -90.6836 356° North 459 528 38,000  Level Memphis Center
04:17PM 35.6911 -90.6944 356° North 459 528 38,000  Level Memphis Center
04:18PM 35.8100 -90.7078 355° North 453 521 38,000  Level Memphis Center
04:19PM 35.9372 -90.7183 356° North 453 521 38,000  Level Memphis Center
04:20PM 36.0642 -90.7319 355° North 453 521 38,000  Level Memphis Center
04:21PM 36.1914 -90.7428 356° North 453 521 38,000  Level Memphis Center
04:22PM 36.3228 -90.7561 355° North 465 535 38,000  Level Memphis Center
04:23PM 36.4478 -90.7672 356° North 460 529 38,000  Level Memphis Center
04:24PM 36.5789 -90.7781 356° North 460 529 38,000  Level Memphis Center
04:26PM 36.8392 -90.7981 356° North 464 534 38,000  Level Kansas City Center
04:27PM 36.9681 -90.8100 356° North 463 533 38,000  Level Kansas City Center
04:28PM 37.1231 -90.8231 356° North 461 531 38,000  Level Kansas City Center
04:29PM 37.2517 -90.8331 356° North 462 532 38,000  Level Kansas City Center
04:30PM 37.3819 -90.8450 356° North 464 534 38,000  Level Kansas City Center
04:31PM 37.5106 -90.8569 356° North 465 535 38,000  Level Kansas City Center
04:32PM 37.6414 -90.8692 356° North 461 531 38,000  Level Kansas City Center
04:33PM 37.7686 -90.8822 355° North 459 528 38,000  Level Kansas City Center
04:34PM 37.8972 -90.8947 356° North 461 531 38,000  Level Kansas City Center
04:35PM 38.0242 -90.9064 356° North 459 528 38,000  Level Kansas City Center
04:36PM 38.1778 -90.9211 356° North 459 528 38,000  Level Kansas City Center
04:37PM 38.3058 -90.9339 356° North 459 528 38,000  Level Kansas City Center
04:39PM 38.4328 -90.9472 355° North 457 526 38,000  Level Kansas City Center
04:40PM 38.5522 -90.9583 356° North 439 505 38,000  Level Kansas City Center
04:41PM 38.6631 -90.9675 356° North 408 470 38,000  Level Kansas City Center
04:42PM 38.7753 -90.9775 356° North 406 467 38,000  Level Kansas City Center
04:43PM 38.8831 -91.0228 342° North 405 466 38,000  Level Kansas City Center
04:44PM 38.9994 -91.1053 331° Northwest 400 460 38,000  Level Kansas City Center
04:45PM 39.0872 -91.1933 322° Northwest 400 460 38,000 -180 Level Kansas City Center
04:46PM 39.1750 -91.2814 322° Northwest 399 459 37,700 -660 Descending Kansas City Center
04:47PM 39.2658 -91.3697 323° Northwest 405 466 36,700 -1,020 Descending Kansas City Center
04:48PM 39.3564 -91.4556 324° Northwest 405 466 35,700 -840 Descending Kansas City Center
04:49PM 39.4472 -91.5389 325° Northwest 402 463 35,000 -360 Descending Kansas City Center
04:50PM 39.5742 -91.5914 342° North 409 471 35,000  Level Kansas City Center
04:51PM 39.6892 -91.5525 15° North 423 487 35,000 -480 Level Kansas City Center
04:52PM 39.7869 -91.4525 38° Northeast 444 511 34,100 -900 Descending Kansas City Center
04:53PM 39.8753 -91.3358 45° Northeast 458 527 33,200 -540 Descending Kansas City Center
04:54PM 39.9636 -91.2183 46° Northeast 459 528 33,000 -120 Descending Kansas City Center
04:55PM 40.0714 -91.0750 45° Northeast 463 533 33,000  Level Kansas City Center
04:56PM 40.1622 -90.9539 46° Northeast 469 540 33,000  Level Kansas City Center
04:57PM 40.2522 -90.8339 45° Northeast 482 555 33,000  Level Chicago Center
04:58PM 40.3489 -90.7053 45° Northeast 492 566 33,000  Level Chicago Center
04:59PM 40.4461 -90.5742 46° Northeast 498 573 33,000  Level Chicago Center
05:00PM 40.5425 -90.4433 46° Northeast 497 572 33,000 -360 Level Chicago Center
05:01PM 40.6397 -90.3128 46° Northeast 498 573 32,300 -900 Descending Chicago Center
05:02PM 40.7467 -90.1656 46° Northeast 500 575 31,200 -780 Descending Chicago Center
05:03PM 40.8439 -90.0350 45° Northeast 500 575 30,700 -1,200 Descending Chicago Center
05:04PM 40.9383 -89.9022 47° Northeast 496 571 28,700 -2,160 Descending Chicago Center
05:05PM 41.0433 -89.7531 47° Northeast 477 549 26,300 -2,160 Descending Chicago Center
05:06PM 41.1342 -89.6275 46° Northeast 473 544 24,300 -1,980 Descending Chicago Center
05:07PM 41.2008 -89.4847 58° Northeast 463 533 22,300 -2,040 Descending Chicago Center
05:08PM 41.2592 -89.3467 61° Northeast 437 503 20,100 -2,160 Descending Chicago Center
05:09PM 41.3139 -89.2081 62° Northeast 426 490 17,900 -2,220 Descending Chicago Center
05:10PM 41.3642 -89.0808 62° Northeast 401 461 15,600 -2,520 Descending Chicago Center
05:11PM 41.4275 -88.9247 62° Northeast 397 457 12,800 -1,740 Descending Chicago Center
05:13PM 41.4714 -88.8125 62° Northeast 339 390 12,100 -840 Descending Chicago Center
05:14PM 41.5106 -88.7117 63° Northeast 305 351 11,100 -540 Descending Chicago Center
05:15PM 41.5500 -88.6133 62° Northeast 300 345 11,000 -120 Descending Chicago Center
05:16PM 41.5939 -88.5186 58° Northeast 302 348 10,900 -1,020 Descending Chicago Center
05:17PM 41.6783 -88.4397 35° Northeast 305 351 9,000 -1,500 Descending Chicago Center
05:18PM 41.7436 -88.3714 38° Northeast 293 337 7,800 -900 Descending Chicago Center
05:19PM 41.7519 -88.2783 83° East 247 284 7,200 -660 Descending Chicago Center
05:20PM 41.7644 -88.1961 78° East 227 261 6,500 -960 Descending Chicago Center
05:21PM 41.7944 -88.1211 62° Northeast 226 260 5,300 -1,200 Descending Chicago Center
05:22PM 41.8264 -88.0489 59° Northeast 234 269 4,000 -1,260 Descending Chicago Center